sensor_id;sensor_type;location;lat;lon;timestamp;pressure;altitude;pressure_sealevel;temperature;humidity
82575;BME280;72260;65.870;13.210;2023-09-30T00:00:57;99526.34;;;10.40;82.16
82575;BME280;72260;65.870;13.210;2023-09-30T00:03:23;99518.91;;;10.46;81.97
82575;BME280;72260;65.870;13.210;2023-09-30T00:05:49;99524.53;;;10.63;80.45
82575;BME280;72260;65.870;13.210;2023-09-30T00:08:14;99519.25;;;10.63;80.99
82575;BME280;72260;65.870;13.210;2023-09-30T00:10:40;99523.22;;;10.47;82.50
82575;BME280;72260;65.870;13.210;2023-09-30T00:13:05;99514.34;;;10.48;82.42
82575;BME280;72260;65.870;13.210;2023-09-30T00:15:34;99523.09;;;10.48;82.67
82575;BME280;72260;65.870;13.210;2023-09-30T00:17:59;99519.97;;;10.43;82.95
82575;BME280;72260;65.870;13.210;2023-09-30T00:20:27;99518.91;;;10.46;82.80
82575;BME280;72260;65.870;13.210;2023-09-30T00:22:52;99513.13;;;10.52;82.92
82575;BME280;72260;65.870;13.210;2023-09-30T00:25:18;99514.22;;;10.60;82.34
82575;BME280;72260;65.870;13.210;2023-09-30T00:27:43;99515.91;;;10.61;82.22
82575;BME280;72260;65.870;13.210;2023-09-30T00:30:09;99511.44;;;10.51;81.89
82575;BME280;72260;65.870;13.210;2023-09-30T00:32:34;99514.47;;;10.24;82.18
82575;BME280;72260;65.870;13.210;2023-09-30T00:35:03;99518.44;;;10.29;82.61
82575;BME280;72260;65.870;13.210;2023-09-30T00:37:28;99505.00;;;10.32;82.93
82575;BME280;72260;65.870;13.210;2023-09-30T00:39:54;99520.63;;;10.35;82.56
82575;BME280;72260;65.870;13.210;2023-09-30T00:42:20;99512.69;;;10.35;82.66
82575;BME280;72260;65.870;13.210;2023-09-30T00:44:46;99513.63;;;10.46;81.36
82575;BME280;72260;65.870;13.210;2023-09-30T00:47:13;99513.00;;;10.42;81.26
82575;BME280;72260;65.870;13.210;2023-09-30T00:49:40;99521.31;;;10.49;81.94
82575;BME280;72260;65.870;13.210;2023-09-30T00:52:09;99528.03;;;10.53;81.98
82575;BME280;72260;65.870;13.210;2023-09-30T00:54:34;99531.41;;;10.43;82.06
82575;BME280;72260;65.870;13.210;2023-09-30T00:57:03;99530.59;;;10.32;82.66
82575;BME280;72260;65.870;13.210;2023-09-30T00:59:29;99526.63;;;10.37;82.20
82575;BME280;72260;65.870;13.210;2023-09-30T01:01:58;99514.97;;;10.29;83.02
82575;BME280;72260;65.870;13.210;2023-09-30T01:04:26;99523.59;;;10.42;82.33
82575;BME280;72260;65.870;13.210;2023-09-30T01:06:52;99519.91;;;10.33;81.80
82575;BME280;72260;65.870;13.210;2023-09-30T01:09:18;99531.41;;;10.43;82.31
82575;BME280;72260;65.870;13.210;2023-09-30T01:11:44;99529.63;;;10.33;82.55
82575;BME280;72260;65.870;13.210;2023-09-30T01:14:31;99524.09;;;10.25;82.15
82575;BME280;72260;65.870;13.210;2023-09-30T01:16:57;99517.34;;;10.21;82.42
82575;BME280;72260;65.870;13.210;2023-09-30T01:19:24;99506.28;;;10.16;82.45
82575;BME280;72260;65.870;13.210;2023-09-30T01:21:56;99517.47;;;10.19;82.60
82575;BME280;72260;65.870;13.210;2023-09-30T01:24:29;99527.75;;;10.11;82.57
82575;BME280;72260;65.870;13.210;2023-09-30T01:26:56;99527.66;;;10.13;82.54
82575;BME280;72260;65.870;13.210;2023-09-30T01:29:22;99519.84;;;10.11;82.03
82575;BME280;72260;65.870;13.210;2023-09-30T01:31:48;99512.19;;;10.19;81.24
82575;BME280;72260;65.870;13.210;2023-09-30T01:34:15;99520.19;;;9.95;81.58
82575;BME280;72260;65.870;13.210;2023-09-30T01:36:41;99517.56;;;9.95;82.41
82575;BME280;72260;65.870;13.210;2023-09-30T01:39:08;99508.19;;;9.91;82.09
82575;BME280;72260;65.870;13.210;2023-09-30T01:41:36;99505.31;;;9.94;81.88
82575;BME280;72260;65.870;13.210;2023-09-30T01:44:02;99497.78;;;10.01;81.94
82575;BME280;72260;65.870;13.210;2023-09-30T01:46:27;99508.44;;;9.99;81.66
82575;BME280;72260;65.870;13.210;2023-09-30T01:48:53;99501.34;;;9.89;81.49
82575;BME280;72260;65.870;13.210;2023-09-30T01:51:18;99502.78;;;9.82;81.09
82575;BME280;72260;65.870;13.210;2023-09-30T01:53:43;99502.03;;;9.80;80.82
82575;BME280;72260;65.870;13.210;2023-09-30T01:56:09;99491.69;;;9.54;80.54
82575;BME280;72260;65.870;13.210;2023-09-30T01:58:34;99492.81;;;9.28;80.71
82575;BME280;72260;65.870;13.210;2023-09-30T02:01:03;99491.19;;;9.38;80.76
82575;BME280;72260;65.870;13.210;2023-09-30T02:03:29;99500.06;;;9.48;81.11
82575;BME280;72260;65.870;13.210;2023-09-30T02:05:56;99492.88;;;9.39;82.13
82575;BME280;72260;65.870;13.210;2023-09-30T02:08:22;99497.31;;;9.38;82.41
82575;BME280;72260;65.870;13.210;2023-09-30T02:10:47;99496.69;;;9.35;82.42
82575;BME280;72260;65.870;13.210;2023-09-30T02:13:13;99487.94;;;9.34;82.52
82575;BME280;72260;65.870;13.210;2023-09-30T02:15:42;99491.06;;;9.39;82.47
82575;BME280;72260;65.870;13.210;2023-09-30T02:18:09;99500.28;;;9.45;82.03
82575;BME280;72260;65.870;13.210;2023-09-30T02:20:35;99491.78;;;9.41;81.88
82575;BME280;72260;65.870;13.210;2023-09-30T02:23:08;99495.28;;;9.53;82.59
82575;BME280;72260;65.870;13.210;2023-09-30T02:25:39;99497.59;;;9.69;82.34
82575;BME280;72260;65.870;13.210;2023-09-30T02:28:05;99493.75;;;9.62;83.53
82575;BME280;72260;65.870;13.210;2023-09-30T02:30:31;99485.84;;;9.62;83.18
82575;BME280;72260;65.870;13.210;2023-09-30T02:32:57;99493.63;;;9.63;82.08
82575;BME280;72260;65.870;13.210;2023-09-30T02:35:22;99486.41;;;9.54;82.62
82575;BME280;72260;65.870;13.210;2023-09-30T02:37:48;99493.03;;;9.60;82.35
82575;BME280;72260;65.870;13.210;2023-09-30T02:40:15;99489.03;;;9.54;82.56
82575;BME280;72260;65.870;13.210;2023-09-30T02:42:42;99481.94;;;9.43;83.87
82575;BME280;72260;65.870;13.210;2023-09-30T02:45:10;99476.09;;;9.51;82.67
82575;BME280;72260;65.870;13.210;2023-09-30T02:47:37;99470.09;;;9.49;82.38
82575;BME280;72260;65.870;13.210;2023-09-30T02:50:04;99474.78;;;9.57;83.16
82575;BME280;72260;65.870;13.210;2023-09-30T02:52:30;99481.41;;;9.73;80.55
82575;BME280;72260;65.870;13.210;2023-09-30T02:54:56;99478.63;;;9.64;81.30
82575;BME280;72260;65.870;13.210;2023-09-30T02:57:25;99474.97;;;10.00;79.97
82575;BME280;72260;65.870;13.210;2023-09-30T02:59:50;99480.31;;;9.65;80.99
82575;BME280;72260;65.870;13.210;2023-09-30T03:02:19;99471.88;;;9.49;82.34
82575;BME280;72260;65.870;13.210;2023-09-30T03:04:46;99470.97;;;9.72;81.77
82575;BME280;72260;65.870;13.210;2023-09-30T03:07:13;99470.84;;;9.62;82.45
82575;BME280;72260;65.870;13.210;2023-09-30T03:09:38;99480.09;;;9.68;81.99
82575;BME280;72260;65.870;13.210;2023-09-30T03:12:04;99485.22;;;9.58;82.52
82575;BME280;72260;65.870;13.210;2023-09-30T03:14:31;99476.81;;;9.53;82.69
82575;BME280;72260;65.870;13.210;2023-09-30T03:16:58;99471.22;;;9.69;81.41
82575;BME280;72260;65.870;13.210;2023-09-30T03:19:24;99471.22;;;9.91;80.41
82575;BME280;72260;65.870;13.210;2023-09-30T03:21:49;99471.91;;;9.60;82.42
82575;BME280;72260;65.870;13.210;2023-09-30T03:24:15;99466.94;;;9.44;82.38
82575;BME280;72260;65.870;13.210;2023-09-30T03:26:41;99458.81;;;9.47;82.52
82575;BME280;72260;65.870;13.210;2023-09-30T03:29:07;99460.03;;;9.65;82.79
82575;BME280;72260;65.870;13.210;2023-09-30T03:31:35;99460.53;;;9.82;82.06
82575;BME280;72260;65.870;13.210;2023-09-30T03:34:00;99460.31;;;9.73;82.46
82575;BME280;72260;65.870;13.210;2023-09-30T03:36:26;99453.69;;;9.68;82.68
82575;BME280;72260;65.870;13.210;2023-09-30T03:38:52;99454.63;;;9.56;82.39
82575;BME280;72260;65.870;13.210;2023-09-30T03:41:19;99456.81;;;9.95;80.59
82575;BME280;72260;65.870;13.210;2023-09-30T03:43:45;99448.53;;;9.66;81.12
82575;BME280;72260;65.870;13.210;2023-09-30T03:46:10;99452.84;;;9.56;82.16
82575;BME280;72260;65.870;13.210;2023-09-30T03:48:37;99460.75;;;9.56;82.67
82575;BME280;72260;65.870;13.210;2023-09-30T03:51:14;99462.53;;;9.56;82.32
82575;BME280;72260;65.870;13.210;2023-09-30T03:53:46;99465.06;;;9.57;82.69
82575;BME280;72260;65.870;13.210;2023-09-30T03:56:12;99463.16;;;9.59;82.61
82575;BME280;72260;65.870;13.210;2023-09-30T03:58:39;99465.81;;;9.70;81.40
82575;BME280;72260;65.870;13.210;2023-09-30T04:01:04;99467.59;;;9.59;82.37
82575;BME280;72260;65.870;13.210;2023-09-30T04:03:30;99471.03;;;9.48;83.56
82575;BME280;72260;65.870;13.210;2023-09-30T04:05:58;99473.44;;;9.51;83.76
82575;BME280;72260;65.870;13.210;2023-09-30T04:08:24;99463.00;;;9.50;83.45
82575;BME280;72260;65.870;13.210;2023-09-30T04:10:49;99454.41;;;9.59;83.66
82575;BME280;72260;65.870;13.210;2023-09-30T04:13:15;99456.34;;;9.90;81.24
82575;BME280;72260;65.870;13.210;2023-09-30T04:15:40;99442.53;;;9.75;81.70
82575;BME280;72260;65.870;13.210;2023-09-30T04:18:06;99453.22;;;9.63;83.05
82575;BME280;72260;65.870;13.210;2023-09-30T04:20:31;99454.66;;;9.67;81.75
82575;BME280;72260;65.870;13.210;2023-09-30T04:22:57;99461.00;;;9.64;81.98
82575;BME280;72260;65.870;13.210;2023-09-30T04:25:23;99448.47;;;9.44;82.28
82575;BME280;72260;65.870;13.210;2023-09-30T04:27:52;99455.09;;;9.50;82.24
82575;BME280;72260;65.870;13.210;2023-09-30T04:30:18;99450.88;;;9.36;83.29
82575;BME280;72260;65.870;13.210;2023-09-30T04:32:44;99455.47;;;9.56;81.63
82575;BME280;72260;65.870;13.210;2023-09-30T04:35:10;99457.25;;;9.56;82.30
82575;BME280;72260;65.870;13.210;2023-09-30T04:37:36;99449.19;;;9.46;82.88
82575;BME280;72260;65.870;13.210;2023-09-30T04:40:07;99449.59;;;9.53;82.34
82575;BME280;72260;65.870;13.210;2023-09-30T04:42:34;99449.00;;;9.60;82.48
82575;BME280;72260;65.870;13.210;2023-09-30T04:45:04;99444.19;;;9.54;83.07
82575;BME280;72260;65.870;13.210;2023-09-30T04:47:33;99443.69;;;9.49;82.67
82575;BME280;72260;65.870;13.210;2023-09-30T04:49:58;99452.91;;;9.43;83.27
82575;BME280;72260;65.870;13.210;2023-09-30T04:52:24;99447.41;;;9.47;83.10
82575;BME280;72260;65.870;13.210;2023-09-30T04:54:53;99453.06;;;9.42;83.47
82575;BME280;72260;65.870;13.210;2023-09-30T04:57:18;99445.50;;;9.37;83.76
82575;BME280;72260;65.870;13.210;2023-09-30T04:59:44;99451.50;;;9.51;83.22
82575;BME280;72260;65.870;13.210;2023-09-30T05:02:11;99443.56;;;9.51;82.59
82575;BME280;72260;65.870;13.210;2023-09-30T05:04:40;99449.44;;;9.32;83.52
82575;BME280;72260;65.870;13.210;2023-09-30T05:07:05;99448.75;;;9.41;83.44
82575;BME280;72260;65.870;13.210;2023-09-30T05:09:30;99440.09;;;9.39;83.55
82575;BME280;72260;65.870;13.210;2023-09-30T05:11:56;99441.66;;;9.41;83.38
82575;BME280;72260;65.870;13.210;2023-09-30T05:14:22;99447.25;;;9.26;82.34
82575;BME280;72260;65.870;13.210;2023-09-30T05:16:47;99449.84;;;9.15;82.90
82575;BME280;72260;65.870;13.210;2023-09-30T05:19:12;99456.00;;;9.26;82.95
82575;BME280;72260;65.870;13.210;2023-09-30T05:21:38;99455.66;;;9.31;83.37
82575;BME280;72260;65.870;13.210;2023-09-30T05:24:04;99452.28;;;9.29;83.39
82575;BME280;72260;65.870;13.210;2023-09-30T05:26:31;99454.72;;;9.43;82.85
82575;BME280;72260;65.870;13.210;2023-09-30T05:28:56;99450.16;;;9.45;82.81
82575;BME280;72260;65.870;13.210;2023-09-30T05:31:21;99450.88;;;9.36;83.29
82575;BME280;72260;65.870;13.210;2023-09-30T05:33:47;99452.69;;;9.47;83.13
82575;BME280;72260;65.870;13.210;2023-09-30T05:36:12;99455.31;;;9.47;84.16
82575;BME280;72260;65.870;13.210;2023-09-30T05:38:39;99448.84;;;9.51;82.85
82575;BME280;72260;65.870;13.210;2023-09-30T05:41:04;99456.16;;;9.47;82.93
82575;BME280;72260;65.870;13.210;2023-09-30T05:43:31;99450.44;;;9.42;82.58
82575;BME280;72260;65.870;13.210;2023-09-30T05:45:57;99457.38;;;9.54;82.42
82575;BME280;72260;65.870;13.210;2023-09-30T05:48:23;99461.09;;;9.52;83.26
82575;BME280;72260;65.870;13.210;2023-09-30T05:50:49;99461.78;;;9.42;83.53
82575;BME280;72260;65.870;13.210;2023-09-30T05:53:15;99466.50;;;9.50;83.57
82575;BME280;72260;65.870;13.210;2023-09-30T05:55:41;99471.38;;;9.43;84.05
82575;BME280;72260;65.870;13.210;2023-09-30T05:58:08;99474.41;;;9.39;83.92
82575;BME280;72260;65.870;13.210;2023-09-30T06:00:33;99480.28;;;9.54;83.23
82575;BME280;72260;65.870;13.210;2023-09-30T06:03:00;99473.91;;;9.45;82.85
82575;BME280;72260;65.870;13.210;2023-09-30T06:05:27;99467.91;;;9.43;82.94
82575;BME280;72260;65.870;13.210;2023-09-30T06:07:55;99478.03;;;9.60;82.53
82575;BME280;72260;65.870;13.210;2023-09-30T06:10:20;99484.38;;;9.58;81.98
82575;BME280;72260;65.870;13.210;2023-09-30T06:12:46;99480.97;;;9.44;82.96
82575;BME280;72260;65.870;13.210;2023-09-30T06:15:16;99477.75;;;9.41;83.06
82575;BME280;72260;65.870;13.210;2023-09-30T06:17:47;99485.69;;;9.52;82.91
82575;BME280;72260;65.870;13.210;2023-09-30T06:20:12;99480.56;;;9.62;82.84
82575;BME280;72260;65.870;13.210;2023-09-30T06:22:43;99486.78;;;9.61;82.55
82575;BME280;72260;65.870;13.210;2023-09-30T06:25:14;99486.91;;;9.59;82.87
82575;BME280;72260;65.870;13.210;2023-09-30T06:27:42;99490.34;;;9.49;83.91
82575;BME280;72260;65.870;13.210;2023-09-30T06:30:08;99484.22;;;9.48;84.25
82575;BME280;72260;65.870;13.210;2023-09-30T06:32:34;99491.94;;;9.62;84.16
82575;BME280;72260;65.870;13.210;2023-09-30T06:35:02;99486.72;;;9.73;83.94
82575;BME280;72260;65.870;13.210;2023-09-30T06:37:28;99493.16;;;9.81;83.36
82575;BME280;72260;65.870;13.210;2023-09-30T06:39:54;99492.69;;;9.75;83.53
82575;BME280;72260;65.870;13.210;2023-09-30T06:42:21;99491.84;;;9.75;83.38
82575;BME280;72260;65.870;13.210;2023-09-30T06:44:46;99499.69;;;9.99;81.58
82575;BME280;72260;65.870;13.210;2023-09-30T06:47:12;99490.53;;;9.81;82.17
82575;BME280;72260;65.870;13.210;2023-09-30T06:49:38;99497.59;;;9.69;82.73
82575;BME280;72260;65.870;13.210;2023-09-30T06:52:04;99493.63;;;9.63;82.97
82575;BME280;72260;65.870;13.210;2023-09-30T06:54:31;99491.34;;;9.59;83.52
82575;BME280;72260;65.870;13.210;2023-09-30T06:56:56;99496.13;;;9.54;83.87
82575;BME280;72260;65.870;13.210;2023-09-30T06:59:22;99494.44;;;9.53;83.93
82575;BME280;72260;65.870;13.210;2023-09-30T07:01:47;99502.41;;;9.64;82.19
82575;BME280;72260;65.870;13.210;2023-09-30T07:04:12;99501.22;;;9.68;83.04
82575;BME280;72260;65.870;13.210;2023-09-30T07:06:38;99496.03;;;9.77;83.00
82575;BME280;72260;65.870;13.210;2023-09-30T07:09:04;99502.53;;;9.85;82.60
82575;BME280;72260;65.870;13.210;2023-09-30T07:11:30;99498.44;;;9.81;83.11
82575;BME280;72260;65.870;13.210;2023-09-30T07:13:58;99501.09;;;9.81;83.38
82575;BME280;72260;65.870;13.210;2023-09-30T07:16:24;99505.66;;;9.90;82.81
82575;BME280;72260;65.870;13.210;2023-09-30T07:18:49;99513.94;;;9.85;82.48
82575;BME280;72260;65.870;13.210;2023-09-30T07:21:16;99505.78;;;9.88;83.01
82575;BME280;72260;65.870;13.210;2023-09-30T07:23:41;99516.00;;;9.93;81.71
82575;BME280;72260;65.870;13.210;2023-09-30T07:26:07;99510.81;;;9.80;81.99
82575;BME280;72260;65.870;13.210;2023-09-30T07:28:33;99505.53;;;9.80;81.56
82575;BME280;72260;65.870;13.210;2023-09-30T07:30:59;99505.19;;;10.18;80.14
82575;BME280;72260;65.870;13.210;2023-09-30T07:33:24;99503.66;;;10.04;81.38
82575;BME280;72260;65.870;13.210;2023-09-30T07:35:50;99509.66;;;10.06;83.01
82575;BME280;72260;65.870;13.210;2023-09-30T07:38:15;99514.22;;;10.04;83.03
82575;BME280;72260;65.870;13.210;2023-09-30T07:40:41;99514.09;;;10.17;80.87
82575;BME280;72260;65.870;13.210;2023-09-30T07:43:07;99519.16;;;10.31;79.50
82575;BME280;72260;65.870;13.210;2023-09-30T07:45:32;99511.72;;;10.25;79.56
82575;BME280;72260;65.870;13.210;2023-09-30T07:47:58;99515.03;;;10.16;81.27
82575;BME280;72260;65.870;13.210;2023-09-30T07:50:29;99514.84;;;10.30;80.75
82575;BME280;72260;65.870;13.210;2023-09-30T07:52:54;99514.00;;;10.30;78.42
82575;BME280;72260;65.870;13.210;2023-09-30T07:55:20;99508.13;;;10.26;80.67
82575;BME280;72260;65.870;13.210;2023-09-30T07:57:45;99517.00;;;10.25;81.22
82575;BME280;72260;65.870;13.210;2023-09-30T08:00:11;99505.72;;;10.34;81.30
82575;BME280;72260;65.870;13.210;2023-09-30T08:02:41;99513.84;;;10.42;80.61
82575;BME280;72260;65.870;13.210;2023-09-30T08:05:09;99519.38;;;10.51;81.47
82575;BME280;72260;65.870;13.210;2023-09-30T08:07:35;99520.22;;;10.62;81.19
82575;BME280;72260;65.870;13.210;2023-09-30T08:10:02;99513.69;;;10.77;80.82
82575;BME280;72260;65.870;13.210;2023-09-30T08:12:32;99516.19;;;10.79;81.06
82575;BME280;72260;65.870;13.210;2023-09-30T08:14:58;99511.88;;;10.89;79.18
82575;BME280;72260;65.870;13.210;2023-09-30T08:17:23;99514.41;;;10.80;79.64
82575;BME280;72260;65.870;13.210;2023-09-30T08:19:48;99518.47;;;10.84;80.60
82575;BME280;72260;65.870;13.210;2023-09-30T08:22:14;99513.69;;;10.77;80.98
82575;BME280;72260;65.870;13.210;2023-09-30T08:24:40;99517.28;;;10.76;79.56
82575;BME280;72260;65.870;13.210;2023-09-30T08:27:13;99513.22;;;10.72;81.26
82575;BME280;72260;65.870;13.210;2023-09-30T08:29:39;99510.56;;;10.72;82.46
82575;BME280;72260;65.870;13.210;2023-09-30T08:32:04;99521.59;;;10.89;81.09
82575;BME280;72260;65.870;13.210;2023-09-30T08:34:30;99521.91;;;11.06;80.90
82575;BME280;72260;65.870;13.210;2023-09-30T08:36:55;99522.78;;;10.96;80.30
82575;BME280;72260;65.870;13.210;2023-09-30T08:39:22;99509.44;;;10.97;80.85
82575;BME280;72260;65.870;13.210;2023-09-30T08:41:49;99516.03;;;11.03;78.11
82575;BME280;72260;65.870;13.210;2023-09-30T08:44:16;99514.72;;;10.97;80.71
82575;BME280;72260;65.870;13.210;2023-09-30T08:46:42;99515.09;;;10.93;80.73
82575;BME280;72260;65.870;13.210;2023-09-30T08:49:11;99507.25;;;11.02;79.39
82575;BME280;72260;65.870;13.210;2023-09-30T08:51:36;99509.44;;;10.97;76.89
82575;BME280;72260;65.870;13.210;2023-09-30T08:54:04;99513.94;;;11.06;77.15
82575;BME280;72260;65.870;13.210;2023-09-30T08:56:31;99510.78;;;10.92;78.07
82575;BME280;72260;65.870;13.210;2023-09-30T08:59:00;99531.44;;;10.98;77.64
82575;BME280;72260;65.870;13.210;2023-09-30T09:01:27;99528.22;;;11.26;77.30
82575;BME280;72260;65.870;13.210;2023-09-30T09:03:53;99531.34;;;11.20;78.22
82575;BME280;72260;65.870;13.210;2023-09-30T09:06:20;99531.31;;;10.99;79.40
82575;BME280;72260;65.870;13.210;2023-09-30T09:08:46;99528.56;;;11.01;78.74
82575;BME280;72260;65.870;13.210;2023-09-30T09:11:12;99545.22;;;11.13;80.25
82575;BME280;72260;65.870;13.210;2023-09-30T09:13:50;99511.63;;;10.92;78.69
82575;BME280;72260;65.870;13.210;2023-09-30T09:16:17;99528.06;;;10.96;79.73
82575;BME280;72260;65.870;13.210;2023-09-30T09:18:45;99546.66;;;11.05;79.38
82575;BME280;72260;65.870;13.210;2023-09-30T09:21:15;99540.34;;;10.97;80.10
82575;BME280;72260;65.870;13.210;2023-09-30T09:23:46;99545.56;;;11.08;79.73
82575;BME280;72260;65.870;13.210;2023-09-30T09:26:13;99549.66;;;11.12;78.42
82575;BME280;72260;65.870;13.210;2023-09-30T09:28:48;99550.31;;;11.04;79.65
82575;BME280;72260;65.870;13.210;2023-09-30T09:31:21;99541.78;;;11.01;78.67
82575;BME280;72260;65.870;13.210;2023-09-30T09:33:50;99547.22;;;11.20;79.53
82575;BME280;72260;65.870;13.210;2023-09-30T09:36:16;99543.91;;;11.39;78.66
82575;BME280;72260;65.870;13.210;2023-09-30T09:38:51;99546.88;;;11.45;79.32
82575;BME280;72260;65.870;13.210;2023-09-30T09:41:20;99557.56;;;11.55;78.84
82575;BME280;72260;65.870;13.210;2023-09-30T09:43:48;99547.69;;;11.57;78.66
82575;BME280;72260;65.870;13.210;2023-09-30T09:46:16;99557.56;;;11.55;79.86
82575;BME280;72260;65.870;13.210;2023-09-30T09:48:45;99553.06;;;11.67;77.69
82575;BME280;72260;65.870;13.210;2023-09-30T09:51:12;99548.72;;;11.66;77.99
82575;BME280;72260;65.870;13.210;2023-09-30T09:53:41;99553.69;;;11.59;77.83
82575;BME280;72260;65.870;13.210;2023-09-30T09:56:10;99555.97;;;11.64;77.84
82575;BME280;72260;65.870;13.210;2023-09-30T09:58:37;99565.50;;;11.55;76.97
82575;BME280;72260;65.870;13.210;2023-09-30T10:01:06;99563.81;;;11.54;79.29
82575;BME280;72260;65.870;13.210;2023-09-30T10:03:32;99572.25;;;11.48;79.68
82575;BME280;72260;65.870;13.210;2023-09-30T10:05:59;99566.72;;;11.72;79.00
82575;BME280;72260;65.870;13.210;2023-09-30T10:08:35;99564.44;;;11.78;77.18
82575;BME280;72260;65.870;13.210;2023-09-30T10:11:03;99556.63;;;11.77;79.91
82575;BME280;72260;65.870;13.210;2023-09-30T10:13:55;99573.19;;;11.90;77.87
82575;BME280;72260;65.870;13.210;2023-09-30T10:24:58;99566.19;;;12.40;76.92
82575;BME280;72260;65.870;13.210;2023-09-30T10:30:13;99565.25;;;12.21;77.02
82575;BME280;72260;65.870;13.210;2023-09-30T10:36:01;99578.44;;;12.32;76.31
82575;BME280;72260;65.870;13.210;2023-09-30T10:40:53;99571.34;;;12.32;78.19
82575;BME280;72260;65.870;13.210;2023-09-30T10:43:40;99579.16;;;12.64;76.10
82575;BME280;72260;65.870;13.210;2023-09-30T10:48:51;99576.78;;;12.40;77.23
82575;BME280;72260;65.870;13.210;2023-09-30T10:51:18;99583.56;;;12.54;76.27
82575;BME280;72260;65.870;13.210;2023-09-30T10:53:51;99591.25;;;12.57;75.52
82575;BME280;72260;65.870;13.210;2023-09-30T10:56:19;99590.94;;;12.51;77.58
82575;BME280;72260;65.870;13.210;2023-09-30T10:58:50;99580.97;;;12.64;75.12
82575;BME280;72260;65.870;13.210;2023-09-30T11:01:17;99598.09;;;12.60;77.96
82575;BME280;72260;65.870;13.210;2023-09-30T11:03:44;99580.25;;;12.62;76.95
82575;BME280;72260;65.870;13.210;2023-09-30T11:06:14;99594.44;;;12.51;75.93
82575;BME280;72260;65.870;13.210;2023-09-30T11:08:52;99587.53;;;12.39;79.37
82575;BME280;72260;65.870;13.210;2023-09-30T11:11:18;99603.28;;;12.61;77.92
82575;BME280;72260;65.870;13.210;2023-09-30T11:13:44;99597.41;;;12.58;76.97
82575;BME280;72260;65.870;13.210;2023-09-30T11:16:10;99594.56;;;12.50;76.69
82575;BME280;72260;65.870;13.210;2023-09-30T11:18:36;99600.13;;;12.47;78.89
82575;BME280;72260;65.870;13.210;2023-09-30T11:21:10;99603.53;;;12.58;77.69
82575;BME280;72260;65.870;13.210;2023-09-30T11:23:37;99600.44;;;12.53;77.23
82575;BME280;72260;65.870;13.210;2023-09-30T11:26:03;99600.84;;;12.49;76.70
82575;BME280;72260;65.870;13.210;2023-09-30T11:28:41;99611.06;;;12.53;76.54
82575;BME280;72260;65.870;13.210;2023-09-30T11:31:12;99601.19;;;12.65;77.00
82575;BME280;72260;65.870;13.210;2023-09-30T11:33:53;99602.13;;;12.54;77.26
82575;BME280;72260;65.870;13.210;2023-09-30T11:36:22;99613.19;;;12.69;77.83
82575;BME280;72260;65.870;13.210;2023-09-30T11:38:49;99610.66;;;12.58;79.43
82575;BME280;72260;65.870;13.210;2023-09-30T11:41:16;99605.94;;;12.61;80.07
82575;BME280;72260;65.870;13.210;2023-09-30T11:46:33;99606.66;;;12.42;80.64
82575;BME280;72260;65.870;13.210;2023-09-30T11:49:13;99606.63;;;12.63;80.16
82575;BME280;72260;65.870;13.210;2023-09-30T11:51:44;99607.88;;;12.69;79.25
82575;BME280;72260;65.870;13.210;2023-09-30T11:54:14;99620.88;;;12.72;79.67
82575;BME280;72260;65.870;13.210;2023-09-30T11:56:40;99610.97;;;12.74;79.80
82575;BME280;72260;65.870;13.210;2023-09-30T11:59:05;99618.31;;;12.91;80.55
82575;BME280;72260;65.870;13.210;2023-09-30T12:01:31;99617.78;;;12.97;77.15
82575;BME280;72260;65.870;13.210;2023-09-30T12:04:00;99614.69;;;13.02;76.21
82575;BME280;72260;65.870;13.210;2023-09-30T12:06:26;99604.53;;;13.07;74.21
82575;BME280;72260;65.870;13.210;2023-09-30T12:08:51;99612.34;;;13.08;76.32
82575;BME280;72260;65.870;13.210;2023-09-30T12:11:18;99624.25;;;13.14;76.32
82575;BME280;72260;65.870;13.210;2023-09-30T12:13:44;99627.66;;;13.26;73.31
82575;BME280;72260;65.870;13.210;2023-09-30T12:16:10;99620.53;;;13.36;72.87
82575;BME280;72260;65.870;13.210;2023-09-30T12:18:38;99609.22;;;13.34;73.32
82575;BME280;72260;65.870;13.210;2023-09-30T12:21:04;99616.22;;;13.25;70.81
82575;BME280;72260;65.870;13.210;2023-09-30T12:23:33;99609.75;;;13.18;71.55
82575;BME280;72260;65.870;13.210;2023-09-30T12:26:01;99586.44;;;13.22;68.33
82575;BME280;72260;65.870;13.210;2023-09-30T12:28:37;99606.59;;;13.03;71.11
82575;BME280;72260;65.870;13.210;2023-09-30T12:31:05;99617.03;;;13.16;70.89
82575;BME280;72260;65.870;13.210;2023-09-30T12:33:31;99622.50;;;13.24;66.77
82575;BME280;72260;65.870;13.210;2023-09-30T12:35:57;99622.56;;;13.13;66.05
82575;BME280;72260;65.870;13.210;2023-09-30T12:38:24;99622.19;;;13.18;67.57
82575;BME280;72260;65.870;13.210;2023-09-30T12:40:51;99629.97;;;13.09;67.35
82575;BME280;72260;65.870;13.210;2023-09-30T12:43:17;99634.13;;;13.02;67.32
82575;BME280;72260;65.870;13.210;2023-09-30T12:45:43;99624.50;;;13.11;67.73
82575;BME280;72260;65.870;13.210;2023-09-30T12:48:08;99622.84;;;13.10;67.56
82575;BME280;72260;65.870;13.210;2023-09-30T12:50:33;99623.50;;;13.02;66.95
82575;BME280;72260;65.870;13.210;2023-09-30T12:52:59;99616.66;;;12.90;68.56
82575;BME280;72260;65.870;13.210;2023-09-30T12:55:24;99626.88;;;13.04;66.67
82575;BME280;72260;65.870;13.210;2023-09-30T12:57:52;99638.81;;;13.20;65.04
82575;BME280;72260;65.870;13.210;2023-09-30T13:00:18;99627.38;;;12.89;66.86
82575;BME280;72260;65.870;13.210;2023-09-30T13:02:44;99633.88;;;12.75;68.86
82575;BME280;72260;65.870;13.210;2023-09-30T13:05:11;99632.69;;;12.89;68.36
82575;BME280;72260;65.870;13.210;2023-09-30T13:07:37;99616.06;;;12.87;64.16
82575;BME280;72260;65.870;13.210;2023-09-30T13:10:03;99628.69;;;13.04;66.24
82575;BME280;72260;65.870;13.210;2023-09-30T13:12:31;99621.69;;;12.93;67.93
82575;BME280;72260;65.870;13.210;2023-09-30T13:14:58;99630.09;;;12.68;68.14
82575;BME280;72260;65.870;13.210;2023-09-30T13:17:24;99621.19;;;12.78;67.54